Sunday, February 17, 2019, 8:02 PM GMT
Back to Local

CWIT, Saint Clothilde Automated Reporting Station

Location: , , Canada Lat: 45.167
Local Time: 8:02 PM GMT (20:02 GMT) Lon: -73.683
Time Zone: GMT Elev: 170 ft

Show me the last for .
Show Coded

Time T Td Feel RH Dir Speed Gust Alt SLP Vis Weather Sky Remarks
2019-02-17 19:00 14 1 6 55 60° 5 - - 30.15 0 None
2019-02-17 18:00 13 1 6 56 120° 5 - - 30.18 0 None
2019-02-17 17:00 13 0 8 54 90° 3 - - 30.21 0 None
2019-02-17 16:00 12 0 4 58 120° 5 - - 30.22 0 None
2019-02-17 15:00 11 -1 5 57 130° 3 - - 30.23 0 None
2019-02-17 14:00 8 0 - 67 280° 2 - - 30.23 0 None
2019-02-17 13:00 -3 -8 - 78 260° 2 - - 30.23 0 None
2019-02-17 12:00 -4 -7 - 86 - Calm - - 30.21 0 None
2019-02-17 11:00 -1 -6 -9 79 270° 3 - - 30.17 0 None
2019-02-17 10:00 -1 -6 - 79 280° 2 - - 30.16 0 None
2019-02-17 09:00 2 -2 - 80 270° 2 - - 30.16 0 None
2019-02-17 08:00 7 1 -1 76 270° 5 - - 30.13 0 None
2019-02-17 07:00 10 0 3 64 270° 3 - - 30.12 0 None
2019-02-17 06:00 11 2 1 66 290° 6 - - 30.11 0 None
2019-02-17 05:00 12 3 4 66 290° 5 - - 30.09 0 None
2019-02-17 04:00 13 4 4 67 290° 6 - - 30.06 0 None
2019-02-17 03:00 14 6 6 70 280° 5 - - 30.06 0 None
2019-02-17 02:00 17 8 10 66 300° 5 - - 30.05 0 None
2019-02-17 01:00 19 9 12 64 290° 5 - - 30.03 0 None
2019-02-17 00:00 19 9 11 63 280° 6 - - 30.01 0 None
2019-02-16 23:00 21 10 13 61 270° 7 - - 30.00 0 None
2019-02-16 22:00 23 10 13 58 280° 8 - - 29.96 0 None
2019-02-16 21:00 24 10 10 53 280° 10 18 - 29.93 0 Peak wind: 19 mph (17 kts) from 280° at 36 min

Support USWX by starting your Amazon purchase here.